sensor_id;sensor_type;location;lat;lon;timestamp;pressure;altitude;pressure_sealevel;temperature;humidity
47706;BME280;33471;52.104;1.318;2023-06-05T00:01:21;102224.99;;;14.00;47.16
47706;BME280;33471;52.104;1.318;2023-06-05T00:03:48;102226.47;;;13.53;47.62
47706;BME280;33471;52.104;1.318;2023-06-05T00:06:15;102229.66;;;13.59;47.68
47706;BME280;33471;52.104;1.318;2023-06-05T00:08:42;102229.40;;;14.11;46.85
47706;BME280;33471;52.104;1.318;2023-06-05T00:11:09;102226.29;;;14.01;47.03
47706;BME280;33471;52.104;1.318;2023-06-05T00:13:37;102222.94;;;13.27;48.45
47706;BME280;33471;52.104;1.318;2023-06-05T00:16:04;102224.28;;;13.46;48.28
47706;BME280;33471;52.104;1.318;2023-06-05T00:18:32;102222.93;;;13.02;48.67
47706;BME280;33471;52.104;1.318;2023-06-05T00:20:59;102219.35;;;12.82;49.69
47706;BME280;33471;52.104;1.318;2023-06-05T00:23:26;102217.22;;;13.67;48.54
47706;BME280;33471;52.104;1.318;2023-06-05T00:25:53;102216.84;;;13.33;47.89
47706;BME280;33471;52.104;1.318;2023-06-05T00:28:21;102213.22;;;13.46;47.56
47706;BME280;33471;52.104;1.318;2023-06-05T00:30:48;102214.21;;;13.47;47.53
47706;BME280;33471;52.104;1.318;2023-06-05T00:33:15;102212.17;;;12.95;48.34
47706;BME280;33471;52.104;1.318;2023-06-05T00:35:42;102212.35;;;13.41;47.05
47706;BME280;33471;52.104;1.318;2023-06-05T00:38:09;102209.27;;;14.15;46.62
47706;BME280;33471;52.104;1.318;2023-06-05T00:40:37;102210.65;;;13.65;46.83
47706;BME280;33471;52.104;1.318;2023-06-05T00:43:04;102208.77;;;13.52;48.15
47706;BME280;33471;52.104;1.318;2023-06-05T00:45:31;102205.83;;;13.59;47.91
47706;BME280;33471;52.104;1.318;2023-06-05T00:47:59;102208.22;;;13.49;47.99
47706;BME280;33471;52.104;1.318;2023-06-05T00:50:26;102210.85;;;13.81;47.78
47706;BME280;33471;52.104;1.318;2023-06-05T00:52:54;102208.85;;;13.82;47.29
47706;BME280;33471;52.104;1.318;2023-06-05T00:55:21;102203.80;;;13.99;47.05
47706;BME280;33471;52.104;1.318;2023-06-05T00:57:49;102204.22;;;13.83;47.58
47706;BME280;33471;52.104;1.318;2023-06-05T01:00:16;102200.33;;;13.65;47.32
47706;BME280;33471;52.104;1.318;2023-06-05T01:02:44;102202.59;;;13.09;48.63
47706;BME280;33471;52.104;1.318;2023-06-05T01:05:12;102200.89;;;12.79;49.64
47706;BME280;33471;52.104;1.318;2023-06-05T01:07:40;102206.09;;;12.45;49.71
47706;BME280;33471;52.104;1.318;2023-06-05T01:10:08;102199.73;;;13.31;49.20
47706;BME280;33471;52.104;1.318;2023-06-05T01:12:50;102199.46;;;12.84;48.99
47706;BME280;33471;52.104;1.318;2023-06-05T01:15:23;102198.52;;;13.62;48.19
47706;BME280;33471;52.104;1.318;2023-06-05T01:17:50;102199.23;;;13.55;46.97
47706;BME280;33471;52.104;1.318;2023-06-05T01:20:18;102200.86;;;13.86;47.21
47706;BME280;33471;52.104;1.318;2023-06-05T01:22:47;102199.89;;;13.52;47.39
47706;BME280;33471;52.104;1.318;2023-06-05T01:25:15;102194.96;;;13.53;47.69
47706;BME280;33471;52.104;1.318;2023-06-05T01:27:54;102194.00;;;13.41;48.01
47706;BME280;33471;52.104;1.318;2023-06-05T01:30:27;102191.46;;;13.40;48.10
47706;BME280;33471;52.104;1.318;2023-06-05T01:33:00;102184.02;;;13.59;46.55
47706;BME280;33471;52.104;1.318;2023-06-05T01:35:30;102183.33;;;13.61;45.66
47706;BME280;33471;52.104;1.318;2023-06-05T01:37:59;102183.12;;;13.16;47.27
47706;BME280;33471;52.104;1.318;2023-06-05T01:40:26;102179.43;;;13.91;46.16
47706;BME280;33471;52.104;1.318;2023-06-05T01:42:54;102175.37;;;13.67;45.24
47706;BME280;33471;52.104;1.318;2023-06-05T01:45:22;102175.38;;;13.31;46.89
47706;BME280;33471;52.104;1.318;2023-06-05T01:47:50;102175.92;;;13.23;46.91
47706;BME280;33471;52.104;1.318;2023-06-05T01:50:18;102173.46;;;14.12;45.59
47706;BME280;33471;52.104;1.318;2023-06-05T01:52:46;102175.52;;;13.02;47.58
47706;BME280;33471;52.104;1.318;2023-06-05T01:55:16;102174.77;;;14.06;46.28
47706;BME280;33471;52.104;1.318;2023-06-05T01:57:45;102174.30;;;14.22;45.62
47706;BME280;33471;52.104;1.318;2023-06-05T02:00:13;102175.78;;;13.50;45.82
47706;BME280;33471;52.104;1.318;2023-06-05T02:02:40;102177.18;;;13.34;46.50
47706;BME280;33471;52.104;1.318;2023-06-05T02:05:08;102183.67;;;13.80;45.93
47706;BME280;33471;52.104;1.318;2023-06-05T02:07:37;102181.28;;;13.26;46.89
47706;BME280;33471;52.104;1.318;2023-06-05T02:10:05;102180.13;;;13.49;46.53
47706;BME280;33471;52.104;1.318;2023-06-05T02:12:32;102177.56;;;12.90;47.88
47706;BME280;33471;52.104;1.318;2023-06-05T02:15:00;102176.78;;;12.82;47.81
47706;BME280;33471;52.104;1.318;2023-06-05T02:17:27;102175.78;;;13.31;47.32
47706;BME280;33471;52.104;1.318;2023-06-05T02:19:54;102172.01;;;13.60;46.36
47706;BME280;33471;52.104;1.318;2023-06-05T02:22:21;102168.60;;;13.55;46.95
47706;BME280;33471;52.104;1.318;2023-06-05T02:24:48;102167.09;;;13.86;46.69
47706;BME280;33471;52.104;1.318;2023-06-05T02:27:15;102167.93;;;13.48;47.11
47706;BME280;33471;52.104;1.318;2023-06-05T02:29:43;102166.76;;;13.62;46.60
47706;BME280;33471;52.104;1.318;2023-06-05T02:32:09;102166.98;;;13.57;47.44
47706;BME280;33471;52.104;1.318;2023-06-05T02:34:37;102162.36;;;13.64;46.69
47706;BME280;33471;52.104;1.318;2023-06-05T02:37:04;102166.07;;;14.26;46.21
47706;BME280;33471;52.104;1.318;2023-06-05T02:39:32;102169.17;;;13.81;46.61
47706;BME280;33471;52.104;1.318;2023-06-05T02:41:59;102169.25;;;13.49;46.51
47706;BME280;33471;52.104;1.318;2023-06-05T02:44:26;102169.26;;;13.57;47.06
47706;BME280;33471;52.104;1.318;2023-06-05T02:46:53;102164.69;;;13.35;47.35
47706;BME280;33471;52.104;1.318;2023-06-05T02:49:21;102163.68;;;13.08;47.90
47706;BME280;33471;52.104;1.318;2023-06-05T02:51:48;102162.34;;;13.65;46.96
47706;BME280;33471;52.104;1.318;2023-06-05T02:54:15;102165.00;;;13.65;46.90
47706;BME280;33471;52.104;1.318;2023-06-05T02:56:42;102160.80;;;12.49;49.11
47706;BME280;33471;52.104;1.318;2023-06-05T02:59:09;102159.57;;;13.25;47.84
47706;BME280;33471;52.104;1.318;2023-06-05T03:01:36;102160.82;;;13.38;47.52
47706;BME280;33471;52.104;1.318;2023-06-05T03:04:03;102157.94;;;12.91;48.10
47706;BME280;33471;52.104;1.318;2023-06-05T03:06:30;102153.69;;;13.51;47.25
47706;BME280;33471;52.104;1.318;2023-06-05T03:08:57;102152.20;;;13.58;47.45
47706;BME280;33471;52.104;1.318;2023-06-05T03:11:24;102149.51;;;14.04;46.77
47706;BME280;33471;52.104;1.318;2023-06-05T03:13:51;102151.05;;;13.25;47.45
47706;BME280;33471;52.104;1.318;2023-06-05T03:16:18;102148.93;;;14.31;45.95
47706;BME280;33471;52.104;1.318;2023-06-05T03:18:45;102148.83;;;14.14;45.79
47706;BME280;33471;52.104;1.318;2023-06-05T03:21:13;102148.26;;;14.13;46.73
47706;BME280;33471;52.104;1.318;2023-06-05T03:24:00;102149.15;;;13.55;46.47
47706;BME280;33471;52.104;1.318;2023-06-05T03:26:27;102146.94;;;13.79;46.52
47706;BME280;33471;52.104;1.318;2023-06-05T03:28:54;102145.96;;;13.83;46.98
47706;BME280;33471;52.104;1.318;2023-06-05T03:31:21;102146.87;;;13.24;47.93
47706;BME280;33471;52.104;1.318;2023-06-05T03:33:48;102148.19;;;12.90;48.24
47706;BME280;33471;52.104;1.318;2023-06-05T03:36:15;102148.42;;;13.73;46.66
47706;BME280;33471;52.104;1.318;2023-06-05T03:38:42;102149.56;;;13.06;47.39
47706;BME280;33471;52.104;1.318;2023-06-05T03:41:09;102146.66;;;13.51;47.36
47706;BME280;33471;52.104;1.318;2023-06-05T03:43:36;102144.38;;;13.22;47.73
47706;BME280;33471;52.104;1.318;2023-06-05T03:46:03;102143.99;;;13.06;48.20
47706;BME280;33471;52.104;1.318;2023-06-05T03:48:31;102137.96;;;13.48;47.51
47706;BME280;33471;52.104;1.318;2023-06-05T03:50:58;102137.94;;;13.03;47.87
47706;BME280;33471;52.104;1.318;2023-06-05T03:53:25;102136.44;;;13.42;47.44
47706;BME280;33471;52.104;1.318;2023-06-05T03:55:53;102135.40;;;12.74;48.22
47706;BME280;33471;52.104;1.318;2023-06-05T03:58:20;102134.29;;;12.49;48.67
47706;BME280;33471;52.104;1.318;2023-06-05T04:00:47;102131.57;;;13.72;46.98
47706;BME280;33471;52.104;1.318;2023-06-05T04:03:15;102133.21;;;13.87;46.16
47706;BME280;33471;52.104;1.318;2023-06-05T04:05:42;102132.75;;;14.24;46.35
47706;BME280;33471;52.104;1.318;2023-06-05T04:08:10;102133.51;;;13.92;46.22
47706;BME280;33471;52.104;1.318;2023-06-05T04:10:38;102138.27;;;13.14;47.53
47706;BME280;33471;52.104;1.318;2023-06-05T04:13:05;102134.08;;;13.63;46.97
47706;BME280;33471;52.104;1.318;2023-06-05T04:15:32;102140.74;;;13.20;47.76
47706;BME280;33471;52.104;1.318;2023-06-05T04:17:59;102142.98;;;13.09;47.82
47706;BME280;33471;52.104;1.318;2023-06-05T04:20:26;102145.20;;;13.26;47.53
47706;BME280;33471;52.104;1.318;2023-06-05T04:22:54;102142.01;;;13.59;46.95
47706;BME280;33471;52.104;1.318;2023-06-05T04:25:20;102142.61;;;14.04;45.30
47706;BME280;33471;52.104;1.318;2023-06-05T04:27:49;102142.61;;;14.25;45.51
47706;BME280;33471;52.104;1.318;2023-06-05T04:30:17;102144.75;;;13.37;47.52
47706;BME280;33471;52.104;1.318;2023-06-05T04:32:44;102145.88;;;14.24;46.08
47706;BME280;33471;52.104;1.318;2023-06-05T04:35:12;102144.24;;;14.28;46.29
47706;BME280;33471;52.104;1.318;2023-06-05T04:37:39;102145.62;;;14.58;45.52
47706;BME280;33471;52.104;1.318;2023-06-05T04:40:07;102145.18;;;14.24;45.93
47706;BME280;33471;52.104;1.318;2023-06-05T04:42:35;102149.22;;;14.10;46.17
47706;BME280;33471;52.104;1.318;2023-06-05T04:45:04;102145.42;;;13.53;47.19
47706;BME280;33471;52.104;1.318;2023-06-05T04:47:32;102151.84;;;13.36;47.98
47706;BME280;33471;52.104;1.318;2023-06-05T04:50:00;102149.66;;;13.93;47.16
47706;BME280;33471;52.104;1.318;2023-06-05T04:52:27;102147.31;;;13.59;47.29
47706;BME280;33471;52.104;1.318;2023-06-05T04:54:54;102143.80;;;13.68;47.29
47706;BME280;33471;52.104;1.318;2023-06-05T04:57:22;102146.55;;;13.26;47.68
47706;BME280;33471;52.104;1.318;2023-06-05T04:59:49;102144.10;;;12.98;48.61
47706;BME280;33471;52.104;1.318;2023-06-05T05:02:16;102146.63;;;13.53;47.64
47706;BME280;33471;52.104;1.318;2023-06-05T05:04:43;102151.26;;;12.75;49.24
47706;BME280;33471;52.104;1.318;2023-06-05T05:07:11;102151.76;;;13.14;48.16
47706;BME280;33471;52.104;1.318;2023-06-05T05:09:38;102153.28;;;12.76;49.08
47706;BME280;33471;52.104;1.318;2023-06-05T05:12:05;102154.38;;;12.92;48.74
47706;BME280;33471;52.104;1.318;2023-06-05T05:14:32;102149.10;;;12.46;49.51
47706;BME280;33471;52.104;1.318;2023-06-05T05:16:59;102146.70;;;12.76;48.88
47706;BME280;33471;52.104;1.318;2023-06-05T05:19:26;102144.87;;;13.14;47.99
47706;BME280;33471;52.104;1.318;2023-06-05T05:21:54;102143.72;;;12.82;49.48
47706;BME280;33471;52.104;1.318;2023-06-05T05:24:21;102149.73;;;13.38;47.76
47706;BME280;33471;52.104;1.318;2023-06-05T05:26:49;102146.28;;;13.10;47.97
47706;BME280;33471;52.104;1.318;2023-06-05T05:29:17;102146.46;;;13.20;47.76
47706;BME280;33471;52.104;1.318;2023-06-05T05:31:44;102147.19;;;13.25;47.55
47706;BME280;33471;52.104;1.318;2023-06-05T05:34:12;102151.98;;;13.05;48.42
47706;BME280;33471;52.104;1.318;2023-06-05T05:36:39;102150.00;;;13.15;48.43
47706;BME280;33471;52.104;1.318;2023-06-05T05:39:06;102149.27;;;12.57;49.67
47706;BME280;33471;52.104;1.318;2023-06-05T05:41:33;102147.72;;;12.68;49.26
47706;BME280;33471;52.104;1.318;2023-06-05T05:44:00;102145.40;;;12.90;48.82
47706;BME280;33471;52.104;1.318;2023-06-05T05:46:27;102145.51;;;12.28;50.85
47706;BME280;33471;52.104;1.318;2023-06-05T05:48:54;102141.81;;;13.12;49.13
47706;BME280;33471;52.104;1.318;2023-06-05T05:51:21;102139.61;;;13.69;47.32
47706;BME280;33471;52.104;1.318;2023-06-05T05:53:48;102140.71;;;13.53;47.67
47706;BME280;33471;52.104;1.318;2023-06-05T05:56:15;102140.50;;;13.59;47.71
47706;BME280;33471;52.104;1.318;2023-06-05T05:58:43;102137.76;;;14.17;45.98
47706;BME280;33471;52.104;1.318;2023-06-05T06:01:10;102140.54;;;13.80;46.45
47706;BME280;33471;52.104;1.318;2023-06-05T06:03:37;102143.48;;;13.65;46.96
47706;BME280;33471;52.104;1.318;2023-06-05T06:06:04;102146.17;;;13.04;47.84
47706;BME280;33471;52.104;1.318;2023-06-05T06:08:31;102142.54;;;14.23;46.89
47706;BME280;33471;52.104;1.318;2023-06-05T06:10:58;102139.96;;;14.62;45.77
47706;BME280;33471;52.104;1.318;2023-06-05T06:13:26;102140.10;;;14.94;45.19
47706;BME280;33471;52.104;1.318;2023-06-05T06:15:53;102140.45;;;14.63;44.82
47706;BME280;33471;52.104;1.318;2023-06-05T06:18:20;102144.37;;;15.19;44.16
47706;BME280;33471;52.104;1.318;2023-06-05T06:20:47;102144.87;;;15.22;44.02
47706;BME280;33471;52.104;1.318;2023-06-05T06:23:14;102143.24;;;14.37;45.11
47706;BME280;33471;52.104;1.318;2023-06-05T06:25:41;102145.34;;;14.69;44.50
47706;BME280;33471;52.104;1.318;2023-06-05T06:28:08;102141.55;;;14.08;45.89
47706;BME280;33471;52.104;1.318;2023-06-05T06:30:35;102142.35;;;14.85;44.96
47706;BME280;33471;52.104;1.318;2023-06-05T06:33:02;102144.89;;;14.52;45.69
47706;BME280;33471;52.104;1.318;2023-06-05T06:35:30;102152.50;;;13.78;47.12
47706;BME280;33471;52.104;1.318;2023-06-05T06:37:58;102152.18;;;14.38;46.49
47706;BME280;33471;52.104;1.318;2023-06-05T06:40:25;102157.55;;;14.97;45.34
47706;BME280;33471;52.104;1.318;2023-06-05T06:42:52;102162.27;;;14.72;45.41
47706;BME280;33471;52.104;1.318;2023-06-05T06:45:20;102166.93;;;13.47;47.40
47706;BME280;33471;52.104;1.318;2023-06-05T06:47:47;102161.98;;;14.19;46.09
47706;BME280;33471;52.104;1.318;2023-06-05T06:50:14;102162.82;;;14.69;45.26
47706;BME280;33471;52.104;1.318;2023-06-05T06:52:41;102163.28;;;14.09;46.07
47706;BME280;33471;52.104;1.318;2023-06-05T06:55:09;102162.85;;;13.88;46.97
47706;BME280;33471;52.104;1.318;2023-06-05T06:57:37;102163.69;;;13.81;46.62
47706;BME280;33471;52.104;1.318;2023-06-05T07:00:06;102161.96;;;14.41;45.90
47706;BME280;33471;52.104;1.318;2023-06-05T07:02:33;102159.02;;;14.42;44.99
47706;BME280;33471;52.104;1.318;2023-06-05T07:05:00;102158.73;;;14.71;45.56
47706;BME280;33471;52.104;1.318;2023-06-05T07:07:27;102156.42;;;14.76;45.37
47706;BME280;33471;52.104;1.318;2023-06-05T07:09:54;102163.74;;;14.91;45.03
47706;BME280;33471;52.104;1.318;2023-06-05T07:12:21;102161.59;;;14.53;45.12
47706;BME280;33471;52.104;1.318;2023-06-05T07:14:49;102163.24;;;14.55;45.65
47706;BME280;33471;52.104;1.318;2023-06-05T07:17:16;102163.23;;;14.57;45.41
47706;BME280;33471;52.104;1.318;2023-06-05T07:19:43;102167.86;;;14.49;45.57
47706;BME280;33471;52.104;1.318;2023-06-05T07:22:10;102173.07;;;15.09;43.72
47706;BME280;33471;52.104;1.318;2023-06-05T07:24:37;102177.15;;;15.28;44.04
47706;BME280;33471;52.104;1.318;2023-06-05T07:27:05;102182.43;;;15.21;43.73
47706;BME280;33471;52.104;1.318;2023-06-05T07:29:32;102183.79;;;15.47;43.20
47706;BME280;33471;52.104;1.318;2023-06-05T07:31:59;102186.31;;;15.69;42.71
47706;BME280;33471;52.104;1.318;2023-06-05T07:34:26;102186.42;;;15.47;42.94
47706;BME280;33471;52.104;1.318;2023-06-05T07:36:54;102188.24;;;15.54;42.83
47706;BME280;33471;52.104;1.318;2023-06-05T07:39:22;102188.16;;;16.00;41.28
47706;BME280;33471;52.104;1.318;2023-06-05T07:41:50;102190.14;;;15.82;41.80
47706;BME280;33471;52.104;1.318;2023-06-05T07:44:18;102191.93;;;15.77;41.84
47706;BME280;33471;52.104;1.318;2023-06-05T07:46:47;102189.39;;;15.99;40.79
47706;BME280;33471;52.104;1.318;2023-06-05T07:49:14;102185.85;;;16.51;40.47
47706;BME280;33471;52.104;1.318;2023-06-05T07:51:43;102190.00;;;15.94;41.36
47706;BME280;33471;52.104;1.318;2023-06-05T07:54:12;102196.80;;;15.30;42.53
47706;BME280;33471;52.104;1.318;2023-06-05T07:56:40;102189.10;;;16.09;41.22
47706;BME280;33471;52.104;1.318;2023-06-05T07:59:07;102192.49;;;15.61;41.61
47706;BME280;33471;52.104;1.318;2023-06-05T08:01:36;102189.45;;;15.65;41.55
47706;BME280;33471;52.104;1.318;2023-06-05T08:04:03;102188.02;;;15.22;41.93
47706;BME280;33471;52.104;1.318;2023-06-05T08:06:30;102188.12;;;15.03;42.09
47706;BME280;33471;52.104;1.318;2023-06-05T08:08:57;102194.46;;;15.48;42.00
47706;BME280;33471;52.104;1.318;2023-06-05T08:11:25;102192.78;;;14.94;43.09
47706;BME280;33471;52.104;1.318;2023-06-05T08:13:53;102195.66;;;15.03;42.97
47706;BME280;33471;52.104;1.318;2023-06-05T08:16:20;102200.19;;;15.70;42.21
47706;BME280;33471;52.104;1.318;2023-06-05T08:18:47;102196.07;;;14.78;43.19
47706;BME280;33471;52.104;1.318;2023-06-05T08:21:14;102198.12;;;15.46;42.43
47706;BME280;33471;52.104;1.318;2023-06-05T08:23:44;102195.72;;;15.13;42.64
47706;BME280;33471;52.104;1.318;2023-06-05T08:26:12;102192.78;;;14.84;43.41
47706;BME280;33471;52.104;1.318;2023-06-05T08:28:40;102194.85;;;15.43;42.38
47706;BME280;33471;52.104;1.318;2023-06-05T08:31:07;102192.05;;;15.41;42.01
47706;BME280;33471;52.104;1.318;2023-06-05T08:33:35;102196.43;;;15.81;41.43
47706;BME280;33471;52.104;1.318;2023-06-05T08:36:03;102196.03;;;15.85;41.36
47706;BME280;33471;52.104;1.318;2023-06-05T08:38:31;102193.32;;;15.86;41.33
47706;BME280;33471;52.104;1.318;2023-06-05T08:41:01;102191.58;;;15.72;41.43
47706;BME280;33471;52.104;1.318;2023-06-05T08:43:29;102188.96;;;15.70;40.94
47706;BME280;33471;52.104;1.318;2023-06-05T08:45:56;102192.63;;;15.82;40.70
47706;BME280;33471;52.104;1.318;2023-06-05T08:48:25;102185.04;;;16.41;39.93
47706;BME280;33471;52.104;1.318;2023-06-05T08:50:52;102173.95;;;16.71;38.90
47706;BME280;33471;52.104;1.318;2023-06-05T08:53:20;102177.59;;;16.59;38.56
47706;BME280;33471;52.104;1.318;2023-06-05T08:55:54;102178.18;;;16.92;38.26
47706;BME280;33471;52.104;1.318;2023-06-05T08:58:22;102177.59;;;17.09;38.17
47706;BME280;33471;52.104;1.318;2023-06-05T09:00:50;102176.54;;;17.92;37.10
47706;BME280;33471;52.104;1.318;2023-06-05T09:03:20;102176.57;;;17.23;37.86
47706;BME280;33471;52.104;1.318;2023-06-05T09:05:47;102175.95;;;16.65;38.04
47706;BME280;33471;52.104;1.318;2023-06-05T09:08:16;102175.51;;;16.95;38.24
47706;BME280;33471;52.104;1.318;2023-06-05T09:10:43;102172.87;;;17.48;36.73
47706;BME280;33471;52.104;1.318;2023-06-05T09:13:11;102174.69;;;16.57;39.00
47706;BME280;33471;52.104;1.318;2023-06-05T09:15:38;102175.63;;;17.24;37.82
47706;BME280;33471;52.104;1.318;2023-06-05T09:18:07;102170.64;;;17.72;37.09
47706;BME280;33471;52.104;1.318;2023-06-05T09:20:36;102174.20;;;17.96;36.36
47706;BME280;33471;52.104;1.318;2023-06-05T09:23:04;102166.53;;;18.26;36.79
47706;BME280;33471;52.104;1.318;2023-06-05T09:25:48;102175.85;;;17.45;37.86
47706;BME280;33471;52.104;1.318;2023-06-05T09:28:15;102175.10;;;17.14;37.73
47706;BME280;33471;52.104;1.318;2023-06-05T09:30:54;102175.56;;;17.23;38.03
47706;BME280;33471;52.104;1.318;2023-06-05T09:33:22;102171.72;;;16.90;38.73
47706;BME280;33471;52.104;1.318;2023-06-05T09:36:02;102174.66;;;16.83;39.07
47706;BME280;33471;52.104;1.318;2023-06-05T09:38:30;102172.63;;;16.99;39.12
47706;BME280;33471;52.104;1.318;2023-06-05T09:41:02;102175.54;;;17.52;38.22
47706;BME280;33471;52.104;1.318;2023-06-05T09:43:30;102169.30;;;16.76;39.50
47706;BME280;33471;52.104;1.318;2023-06-05T09:45:57;102174.07;;;16.67;39.82
47706;BME280;33471;52.104;1.318;2023-06-05T09:48:24;102176.28;;;17.23;38.40
47706;BME280;33471;52.104;1.318;2023-06-05T09:50:51;102176.55;;;17.47;37.85
47706;BME280;33471;52.104;1.318;2023-06-05T09:53:19;102174.71;;;17.86;37.88
47706;BME280;33471;52.104;1.318;2023-06-05T09:55:47;102176.30;;;18.60;36.86
47706;BME280;33471;52.104;1.318;2023-06-05T09:58:16;102172.25;;;18.67;36.46
47706;BME280;33471;52.104;1.318;2023-06-05T10:00:45;102177.18;;;17.68;36.89
47706;BME280;33471;52.104;1.318;2023-06-05T10:03:16;102178.63;;;17.40;36.94
47706;BME280;33471;52.104;1.318;2023-06-05T10:05:44;102179.34;;;17.66;37.25
47706;BME280;33471;52.104;1.318;2023-06-05T10:08:12;102178.41;;;17.40;37.65
47706;BME280;33471;52.104;1.318;2023-06-05T10:10:41;102180.93;;;18.21;36.63
47706;BME280;33471;52.104;1.318;2023-06-05T10:13:10;102179.67;;;17.46;37.06
47706;BME280;33471;52.104;1.318;2023-06-05T10:15:40;102179.23;;;18.04;37.30
47706;BME280;33471;52.104;1.318;2023-06-05T10:18:09;102181.37;;;17.18;38.36
47706;BME280;33471;52.104;1.318;2023-06-05T10:20:36;102176.37;;;17.55;38.22
47706;BME280;33471;52.104;1.318;2023-06-05T10:23:04;102176.71;;;17.36;39.19
47706;BME280;33471;52.104;1.318;2023-06-05T10:25:34;102179.18;;;16.95;38.76
47706;BME280;33471;52.104;1.318;2023-06-05T10:28:14;102174.65;;;17.69;38.43
47706;BME280;33471;52.104;1.318;2023-06-05T10:31:19;102172.82;;;17.95;37.27
47706;BME280;33471;52.104;1.318;2023-06-05T10:34:02;102172.50;;;17.93;36.92
47706;BME280;33471;52.104;1.318;2023-06-05T10:36:43;102172.30;;;18.46;36.67
47706;BME280;33471;52.104;1.318;2023-06-05T10:39:14;102171.44;;;18.92;36.35
47706;BME280;33471;52.104;1.318;2023-06-05T10:41:42;102171.17;;;19.56;34.37
47706;BME280;33471;52.104;1.318;2023-06-05T10:44:09;102173.27;;;19.07;35.08
47706;BME280;33471;52.104;1.318;2023-06-05T10:46:37;102178.42;;;19.14;35.47
47706;BME280;33471;52.104;1.318;2023-06-05T10:49:08;102177.94;;;18.29;36.42
47706;BME280;33471;52.104;1.318;2023-06-05T10:51:36;102177.50;;;18.70;36.36
47706;BME280;33471;52.104;1.318;2023-06-05T10:54:04;102173.71;;;19.03;36.25
47706;BME280;33471;52.104;1.318;2023-06-05T10:57:04;102170.22;;;19.51;35.36
47706;BME280;33471;52.104;1.318;2023-06-05T10:59:32;102169.13;;;18.33;36.51
47706;BME280;33471;52.104;1.318;2023-06-05T11:02:31;102165.08;;;19.20;35.21
47706;BME280;33471;52.104;1.318;2023-06-05T11:05:08;102166.53;;;18.49;36.14
47706;BME280;33471;52.104;1.318;2023-06-05T11:07:35;102157.89;;;18.68;35.03
47706;BME280;33471;52.104;1.318;2023-06-05T11:10:08;102149.91;;;19.35;34.93
47706;BME280;33471;52.104;1.318;2023-06-05T11:13:07;102150.91;;;20.45;33.63
47706;BME280;33471;52.104;1.318;2023-06-05T11:15:37;102156.52;;;19.76;33.65
47706;BME280;33471;52.104;1.318;2023-06-05T11:18:36;102149.06;;;19.74;34.86
47706;BME280;33471;52.104;1.318;2023-06-05T11:21:04;102150.31;;;18.97;35.11
47706;BME280;33471;52.104;1.318;2023-06-05T11:23:31;102147.51;;;18.58;35.24
47706;BME280;33471;52.104;1.318;2023-06-05T11:26:39;102145.06;;;19.26;35.45
47706;BME280;33471;52.104;1.318;2023-06-05T11:29:15;102148.10;;;18.21;36.09
47706;BME280;33471;52.104;1.318;2023-06-05T11:31:44;102141.97;;;18.37;36.34
47706;BME280;33471;52.104;1.318;2023-06-05T11:34:12;102146.44;;;19.78;34.02
47706;BME280;33471;52.104;1.318;2023-06-05T11:36:40;102145.68;;;19.32;34.05
47706;BME280;33471;52.104;1.318;2023-06-05T11:39:08;102145.27;;;19.83;33.96
47706;BME280;33471;52.104;1.318;2023-06-05T11:41:42;102143.82;;;20.16;32.75
47706;BME280;33471;52.104;1.318;2023-06-05T11:44:09;102145.34;;;20.17;32.53
47706;BME280;33471;52.104;1.318;2023-06-05T11:46:37;102146.75;;;19.08;34.41
47706;BME280;33471;52.104;1.318;2023-06-05T11:49:05;102150.43;;;19.22;35.49
47706;BME280;33471;52.104;1.318;2023-06-05T11:51:33;102148.03;;;19.20;36.33
47706;BME280;33471;52.104;1.318;2023-06-05T11:54:01;102154.94;;;19.55;35.67
47706;BME280;33471;52.104;1.318;2023-06-05T11:56:29;102151.47;;;18.58;36.45
47706;BME280;33471;52.104;1.318;2023-06-05T11:58:56;102155.32;;;18.92;36.13
47706;BME280;33471;52.104;1.318;2023-06-05T12:01:23;102153.04;;;19.47;35.46
47706;BME280;33471;52.104;1.318;2023-06-05T12:04:02;102156.70;;;19.02;36.37
47706;BME280;33471;52.104;1.318;2023-06-05T12:06:29;102157.64;;;18.26;37.88
47706;BME280;33471;52.104;1.318;2023-06-05T12:09:07;102155.24;;;19.16;36.18
47706;BME280;33471;52.104;1.318;2023-06-05T12:11:33;102151.72;;;19.24;35.75
47706;BME280;33471;52.104;1.318;2023-06-05T12:14:01;102150.14;;;19.09;36.22
47706;BME280;33471;52.104;1.318;2023-06-05T12:16:31;102155.14;;;18.91;36.28
47706;BME280;33471;52.104;1.318;2023-06-05T12:18:59;102157.21;;;18.28;36.79
47706;BME280;33471;52.104;1.318;2023-06-05T12:21:27;102153.69;;;18.96;35.58
47706;BME280;33471;52.104;1.318;2023-06-05T12:24:01;102147.89;;;18.90;36.22
47706;BME280;33471;52.104;1.318;2023-06-05T12:26:29;102149.26;;;18.64;36.50
47706;BME280;33471;52.104;1.318;2023-06-05T12:29:03;102148.33;;;18.90;35.77
47706;BME280;33471;52.104;1.318;2023-06-05T12:31:33;102147.06;;;19.38;33.85
47706;BME280;33471;52.104;1.318;2023-06-05T12:34:02;102151.31;;;19.36;34.54
47706;BME280;33471;52.104;1.318;2023-06-05T12:36:30;102150.33;;;19.28;34.99
47706;BME280;33471;52.104;1.318;2023-06-05T12:39:02;102150.40;;;17.90;36.37
47706;BME280;33471;52.104;1.318;2023-06-05T12:41:29;102149.75;;;17.65;37.39
47706;BME280;33471;52.104;1.318;2023-06-05T12:44:00;102144.69;;;18.38;36.16
47706;BME280;33471;52.104;1.318;2023-06-05T12:46:28;102140.85;;;18.36;35.68
47706;BME280;33471;52.104;1.318;2023-06-05T12:48:55;102137.78;;;18.84;36.10
47706;BME280;33471;52.104;1.318;2023-06-05T12:51:22;102134.04;;;18.86;35.12
47706;BME280;33471;52.104;1.318;2023-06-05T12:53:49;102133.59;;;18.51;35.73
47706;BME280;33471;52.104;1.318;2023-06-05T12:56:16;102134.06;;;19.28;35.13
47706;BME280;33471;52.104;1.318;2023-06-05T12:58:44;102131.90;;;18.87;35.06